Time;durP1;ratioP1;P1;durP2;ratioP2;P2;SDS_P1;SDS_P2;PMS_P1;PMS_P2;Temp;Humidity;BMP_temperature;BMP_pressure;BME280_temperature;BME280_humidity;BME280_pressure;Samples;Min_cycle;Max_cycle;Signal;HPM_P1;HPM_P2
2023/04/03 00:00:56;;;;;;;;;;;;;;;18.86;56.85;98191.09;2083725;28;19924;-52
2023/04/03 00:01:58;;;;;;;;;;;;;;;18.85;56.79;98181.38;2080543;28;19959;-52
2023/04/03 00:02:58;;;;;;;;;;;;;;;18.86;56.65;98187.56;2080042;28;19941;-50
2023/04/03 00:04:00;;;;;;;;;;;;;;;18.85;57.03;98185.94;2084922;28;19925;-50
2023/04/03 00:05:02;;;;;;;;;;;;;;;18.84;56.59;98179.72;2085134;28;19928;-56
2023/04/03 00:06:05;;;;;;;;;;;;;;;18.85;56.62;98184.06;2087110;28;19975;-56
2023/04/03 00:07:05;;;;;;;;;;;;;;;18.86;56.90;98176.81;2086730;28;19962;-55
2023/04/03 00:08:09;;;;;;;;;;;;;;;18.85;56.90;98177.88;2085119;28;19929;-52
2023/04/03 00:09:10;;;;;;;;;;;;;;;18.82;56.97;98181.81;2087143;28;19936;-54
2023/04/03 00:10:11;;;;;;;;;;;;;;;18.84;56.70;98178.91;2085056;28;20005;-57
2023/04/03 00:11:13;;;;;;;;;;;;;;;18.84;56.81;98178.91;2088553;28;19989;-55
2023/04/03 00:12:13;;;;;;;;;;;;;;;18.82;56.70;98175.63;2081416;28;19940;-56
2023/04/03 00:13:15;;;;;;;;;;;;;;;18.82;56.58;98176.44;2078211;28;20600;-55
2023/04/03 00:14:16;;;;;;;;;;;;;;;18.82;56.83;98178.31;2080650;28;19932;-56
2023/04/03 00:15:17;;;;;;;;;;;;;;;18.81;56.91;98176.66;2084336;28;20865;-56
2023/04/03 00:16:18;;;;;;;;;;;;;;;18.81;56.89;98174.78;2083454;28;19964;-58
2023/04/03 00:17:19;;;;;;;;;;;;;;;18.80;56.72;98178.50;2082413;28;19924;-54
2023/04/03 00:18:20;;;;;;;;;;;;;;;18.82;56.73;98170.25;2086143;28;19928;-54
2023/04/03 00:19:21;;;;;;;;;;;;;;;18.78;56.73;98171.69;2081301;28;19990;-52
2023/04/03 00:20:23;;;;;;;;;;;;;;;18.78;56.83;98171.69;2081826;28;20417;-57
2023/04/03 00:21:25;;;;;;;;;;;;;;;18.78;56.96;98175.22;2084798;28;19929;-54
2023/04/03 00:22:28;;;;;;;;;;;;;;;18.77;57.00;98168.19;2085424;28;19936;-53
2023/04/03 00:23:29;;;;;;;;;;;;;;;18.77;57.00;98165.50;2084436;28;19932;-52
2023/04/03 00:24:30;;;;;;;;;;;;;;;18.77;56.88;98164.69;2085470;28;19928;-56
2023/04/03 00:25:31;;;;;;;;;;;;;;;18.77;56.92;98168.19;2084118;28;19932;-55
2023/04/03 00:26:32;;;;;;;;;;;;;;;18.77;56.95;98170.06;2086569;28;19940;-54
2023/04/03 00:27:33;;;;;;;;;;;;;;;18.79;56.76;98168.00;2087783;28;19936;-57
2023/04/03 00:28:34;;;;;;;;;;;;;;;18.76;56.56;98169.25;2084857;28;19929;-55
2023/04/03 00:29:35;;;;;;;;;;;;;;;18.76;56.80;98166.56;2081015;28;20858;-51
2023/04/03 00:30:36;;;;;;;;;;;;;;;18.74;56.83;98165.94;2080661;28;19939;-54
2023/04/03 00:31:38;;;;;;;;;;;;;;;18.74;56.76;98168.63;2079193;28;19931;-53
2023/04/03 00:32:38;;;;;;;;;;;;;;;18.71;56.82;98164.47;2081779;28;20872;-55
2023/04/03 00:33:40;;;;;;;;;;;;;;;18.71;57.08;98161.78;2080183;28;20010;-52
2023/04/03 00:34:40;;;;;;;;;;;;;;;18.71;56.61;98160.97;2076565;28;19929;-53
2023/04/03 00:35:43;;;;;;;;;;;;;;;18.71;56.69;98171.72;2081221;28;19982;-52
2023/04/03 00:36:43;;;;;;;;;;;;;;;18.71;56.86;98164.47;2081690;28;19933;-53
2023/04/03 00:37:45;;;;;;;;;;;;;;;18.71;56.78;98159.09;2083447;28;19924;-52
2023/04/03 00:38:46;;;;;;;;;;;;;;;18.73;56.94;98166.97;2079397;28;19932;-54
2023/04/03 00:39:47;;;;;;;;;;;;;;;18.70;56.93;98157.47;2080372;28;19932;-53
2023/04/03 00:40:48;;;;;;;;;;;;;;;18.70;56.76;98160.16;2085426;28;19928;-54
2023/04/03 00:41:50;;;;;;;;;;;;;;;18.69;56.84;98163.88;2084031;28;19935;-56
2023/04/03 00:42:51;;;;;;;;;;;;;;;18.70;56.95;98162.03;2080974;28;19925;-53
2023/04/03 00:43:53;;;;;;;;;;;;;;;18.69;56.85;98157.66;2078956;28;19935;-51
2023/04/03 00:45:12;;;;;;;;;;;;;;;18.68;56.76;98161.41;2082599;28;20457;-55
2023/04/03 00:46:13;;;;;;;;;;;;;;;18.70;56.71;98157.47;2078253;28;20353;-56
2023/04/03 00:47:15;;;;;;;;;;;;;;;18.71;56.88;98163.66;2081910;28;19968;-54
2023/04/03 00:48:19;;;;;;;;;;;;;;;18.68;56.82;98153.34;2086210;28;19937;-51
2023/04/03 00:49:20;;;;;;;;;;;;;;;18.68;56.59;98156.03;2086000;28;19928;-55
2023/04/03 00:50:22;;;;;;;;;;;;;;;18.69;56.88;98157.66;2085158;28;19933;-54
2023/04/03 00:51:25;;;;;;;;;;;;;;;18.68;56.97;98164.09;2086492;28;20801;-53
2023/04/03 00:52:29;;;;;;;;;;;;;;;18.66;56.68;98166.97;2084373;28;19929;-52
2023/04/03 00:53:33;;;;;;;;;;;;;;;18.66;57.08;98158.91;2079641;28;19928;-55
2023/04/03 00:54:35;;;;;;;;;;;;;;;18.65;56.75;98154.59;2082473;28;19928;-53
2023/04/03 00:55:38;;;;;;;;;;;;;;;18.65;56.91;98161.84;2083568;28;19932;-55
2023/04/03 00:56:39;;;;;;;;;;;;;;;18.63;56.65;98162.03;2086185;28;19929;-55
2023/04/03 00:57:41;;;;;;;;;;;;;;;18.65;56.88;98168.03;2084684;28;20627;-51
2023/04/03 00:58:44;;;;;;;;;;;;;;;18.65;56.61;98165.34;2085827;28;19977;-51
2023/04/03 00:59:49;;;;;;;;;;;;;;;18.65;56.67;98159.97;2085869;28;20023;-56
2023/04/03 01:00:56;;;;;;;;;;;;;;;18.63;56.92;98166.59;2078655;28;19928;-51
2023/04/03 01:01:58;;;;;;;;;;;;;;;18.63;56.90;98161.22;2080737;28;19939;-51
2023/04/03 01:02:59;;;;;;;;;;;;;;;18.64;56.84;98162.88;2081072;28;20345;-51
2023/04/03 01:04:02;;;;;;;;;;;;;;;18.63;56.92;98158.53;2079020;28;19940;-54
2023/04/03 01:05:03;;;;;;;;;;;;;;;18.62;56.77;98160.41;2082916;28;20490;-53
2023/04/03 01:06:05;;;;;;;;;;;;;;;18.60;56.85;98159.78;2083153;28;19939;-53
2023/04/03 01:07:08;;;;;;;;;;;;;;;18.59;56.68;98163.53;2087201;28;20397;-52
2023/04/03 01:08:10;;;;;;;;;;;;;;;18.61;56.86;98168.66;2087913;28;19932;-54
2023/04/03 01:09:10;;;;;;;;;;;;;;;18.59;56.90;98160.84;2086848;28;19966;-52
2023/04/03 01:10:14;;;;;;;;;;;;;;;18.57;56.96;98162.91;2087609;28;20871;-53
2023/04/03 01:11:15;;;;;;;;;;;;;;;18.57;57.08;98170.97;2081399;28;19986;-52
2023/04/03 01:12:17;;;;;;;;;;;;;;;18.59;56.96;98165.38;2081986;28;20003;-55
2023/04/03 01:13:20;;;;;;;;;;;;;;;18.58;57.00;98164.53;2080258;28;19939;-54
2023/04/03 01:14:21;;;;;;;;;;;;;;;18.61;57.04;98163.28;2083383;28;19971;-54
2023/04/03 01:15:23;;;;;;;;;;;;;;;18.59;56.97;98162.72;2081774;28;19996;-55
2023/04/03 01:16:24;;;;;;;;;;;;;;;18.58;56.86;98171.78;2086820;28;19936;-51
2023/04/03 01:17:27;;;;;;;;;;;;;;;18.58;56.88;98161.03;2081451;28;20043;-51
2023/04/03 01:18:29;;;;;;;;;;;;;;;18.58;56.94;98158.34;2078439;28;20027;-52
2023/04/03 01:19:31;;;;;;;;;;;;;;;18.57;56.58;98156.72;2086422;28;20509;-53
2023/04/03 01:20:43;;;;;;;;;;;;;;;18.57;56.71;98157.53;2084301;28;19982;-52
2023/04/03 01:22:07;;;;;;;;;;;;;;;18.57;56.69;98152.16;2087027;28;19977;-53
2023/04/03 01:23:17;;;;;;;;;;;;;;;18.56;56.82;98144.34;2081086;28;19933;-55
2023/04/03 01:24:23;;;;;;;;;;;;;;;18.56;56.88;98149.72;2082298;28;19939;-50
2023/04/03 01:25:23;;;;;;;;;;;;;;;18.56;56.81;98147.03;2085494;28;19928;-51
2023/04/03 01:26:25;;;;;;;;;;;;;;;18.56;56.99;98147.03;2086485;28;20000;-54
2023/04/03 01:27:25;;;;;;;;;;;;;;;18.56;56.84;98147.03;2082112;28;19975;-54
2023/04/03 01:28:29;;;;;;;;;;;;;;;18.54;56.94;98150.72;2078237;28;19925;-54
2023/04/03 01:29:30;;;;;;;;;;;;;;;18.54;56.79;98150.72;2080017;28;20051;-53
2023/04/03 01:30:32;;;;;;;;;;;;;;;18.54;56.93;98141.84;2084715;28;19932;-55
2023/04/03 01:31:44;;;;;;;;;;;;;;;18.53;56.78;98141.03;2086440;28;20010;-51
2023/04/03 01:32:46;;;;;;;;;;;;;;;18.54;56.89;98152.59;2087700;28;19940;-54
2023/04/03 01:33:46;;;;;;;;;;;;;;;18.52;56.80;98142.06;2087096;28;20048;-54
2023/04/03 01:34:48;;;;;;;;;;;;;;;18.50;56.89;98146.84;2082503;28;19929;-53
2023/04/03 01:35:48;;;;;;;;;;;;;;;18.50;57.00;98151.38;2086004;28;19928;-51
2023/04/03 01:36:50;;;;;;;;;;;;;;;18.52;56.76;98143.91;2081504;28;20054;-52
2023/04/03 01:37:50;;;;;;;;;;;;;;;18.51;56.68;98147.66;2078547;28;19929;-53
2023/04/03 01:38:52;;;;;;;;;;;;;;;18.50;56.65;98140.66;2082181;28;20023;-52
2023/04/03 01:39:53;;;;;;;;;;;;;;;18.51;56.86;98137.72;2082500;28;19989;-54
2023/04/03 01:40:54;;;;;;;;;;;;;;;18.50;56.82;98146.03;2077893;28;19928;-53
2023/04/03 01:41:55;;;;;;;;;;;;;;;18.49;56.65;98142.47;2086726;28;19981;-53
2023/04/03 01:42:56;;;;;;;;;;;;;;;18.52;57.00;98139.38;2087342;28;20019;-49
2023/04/03 01:43:57;;;;;;;;;;;;;;;18.50;56.97;98146.03;2079650;28;19932;-53
2023/04/03 01:44:58;;;;;;;;;;;;;;;18.49;56.75;98136.28;2080078;28;19925;-53
2023/04/03 01:45:59;;;;;;;;;;;;;;;18.47;56.66;98136.53;2084100;28;19932;-53
2023/04/03 01:47:01;;;;;;;;;;;;;;;18.46;57.11;98137.53;2085270;28;19936;-53
2023/04/03 01:48:03;;;;;;;;;;;;;;;18.47;56.70;98141.06;2083036;28;20001;-54
2023/04/03 01:49:03;;;;;;;;;;;;;;;18.46;56.73;98142.91;2082876;28;19940;-51
2023/04/03 01:50:05;;;;;;;;;;;;;;;18.45;56.65;98146.66;2086404;28;19958;-54
2023/04/03 01:51:05;;;;;;;;;;;;;;;18.45;56.94;98143.16;2086371;28;19928;-54
2023/04/03 01:52:07;;;;;;;;;;;;;;;18.44;57.04;98145.00;2086930;28;20019;-53
2023/04/03 01:53:07;;;;;;;;;;;;;;;18.44;56.94;98144.16;2084826;28;23947;-53
2023/04/03 01:54:09;;;;;;;;;;;;;;;18.43;56.65;98140.66;2085432;28;19978;-52
2023/04/03 01:55:09;;;;;;;;;;;;;;;18.42;56.82;98141.72;2081999;28;19932;-53
2023/04/03 01:56:11;;;;;;;;;;;;;;;18.44;56.90;98136.97;2079118;28;19928;-53
2023/04/03 01:57:13;;;;;;;;;;;;;;;18.43;56.85;98137.97;2084780;28;19928;-53
2023/04/03 01:58:14;;;;;;;;;;;;;;;18.44;56.54;98141.47;2078735;28;20514;-53
2023/04/03 01:59:16;;;;;;;;;;;;;;;18.43;56.80;98139.84;2081417;28;19972;-52
2023/04/03 02:00:18;;;;;;;;;;;;;;;18.43;56.94;98137.16;2077163;28;20032;-52
2023/04/03 02:01:18;;;;;;;;;;;;;;;18.41;57.03;98137.34;2082785;28;20837;-53
2023/04/03 02:02:21;;;;;;;;;;;;;;;18.42;56.86;98138.22;2080810;28;19933;-54
2023/04/03 02:03:22;;;;;;;;;;;;;;;18.41;56.72;98137.34;2080089;28;19928;-53
2023/04/03 02:04:23;;;;;;;;;;;;;;;18.41;56.96;98134.69;2082352;28;19975;-53
2023/04/03 02:05:24;;;;;;;;;;;;;;;18.41;56.97;98134.69;2085711;28;20005;-53
2023/04/03 02:06:26;;;;;;;;;;;;;;;18.41;56.71;98132.00;2078225;28;19925;-52
2023/04/03 02:07:27;;;;;;;;;;;;;;;18.40;56.96;98125.00;2085673;28;19928;-50
2023/04/03 02:08:28;;;;;;;;;;;;;;;18.38;56.85;98129.75;2086556;28;19932;-54
2023/04/03 02:09:28;;;;;;;;;;;;;;;18.39;56.87;98125.22;2087474;28;19981;-51
2023/04/03 02:10:30;;;;;;;;;;;;;;;18.41;56.95;98125.81;2084847;28;19929;-54
2023/04/03 02:11:30;;;;;;;;;;;;;;;18.38;56.88;98127.06;2086275;28;19928;-52
2023/04/03 02:12:32;;;;;;;;;;;;;;;18.38;56.72;98124.38;2073547;28;20002;-54
2023/04/03 02:13:32;;;;;;;;;;;;;;;18.39;56.93;98127.91;2083694;28;20600;-51
2023/04/03 02:14:34;;;;;;;;;;;;;;;18.37;56.91;98124.59;2081771;28;19990;-52
2023/04/03 02:15:37;;;;;;;;;;;;;;;18.38;56.90;98123.56;2082022;28;20532;-52
2023/04/03 02:16:38;;;;;;;;;;;;;;;18.38;56.92;98126.25;2081810;28;19979;-53
2023/04/03 02:17:40;;;;;;;;;;;;;;;18.38;56.71;98124.38;2084091;28;19962;-51
2023/04/03 02:18:42;;;;;;;;;;;;;;;18.38;56.68;98116.31;2085064;28;20634;-53
2023/04/03 02:19:42;;;;;;;;;;;;;;;18.38;56.72;98126.25;2086990;28;19942;-54
2023/04/03 02:20:44;;;;;;;;;;;;;;;18.37;56.67;98125.41;2086707;28;20293;-53
2023/04/03 02:21:45;;;;;;;;;;;;;;;18.35;56.79;98123.97;2087662;28;19939;-54
2023/04/03 02:22:46;;;;;;;;;;;;;;;18.36;57.01;98117.56;2084815;28;19970;-53
2023/04/03 02:23:47;;;;;;;;;;;;;;;18.35;56.94;98121.28;2096160;28;19969;-53
2023/04/03 02:24:48;;;;;;;;;;;;;;;18.34;56.89;98119.66;2083077;28;19986;-54
2023/04/03 02:25:49;;;;;;;;;;;;;;;18.37;56.72;98114.69;2079463;28;20827;-55
2023/04/03 02:26:50;;;;;;;;;;;;;;;18.35;56.86;98127.47;2082156;28;20020;-53
2023/04/03 02:27:51;;;;;;;;;;;;;;;18.34;56.92;98120.47;2081370;28;19932;-52
2023/04/03 02:28:52;;;;;;;;;;;;;;;18.33;56.75;98118.00;2083478;28;20983;-54
2023/04/03 02:29:53;;;;;;;;;;;;;;;18.32;56.83;98122.53;2081921;28;19929;-54
2023/04/03 02:30:54;;;;;;;;;;;;;;;18.32;57.09;98122.53;2078592;28;19924;-55
2023/04/03 02:31:55;;;;;;;;;;;;;;;18.33;56.72;98113.47;2082964;28;20349;-53
2023/04/03 02:32:57;;;;;;;;;;;;;;;18.33;56.89;98113.47;2080772;28;19932;-53
2023/04/03 02:33:58;;;;;;;;;;;;;;;18.34;56.98;98122.34;2087177;28;19924;-54
2023/04/03 02:34:59;;;;;;;;;;;;;;;18.35;56.77;98114.06;2087100;28;19998;-55
2023/04/03 02:36:00;;;;;;;;;;;;;;;18.31;56.65;98123.59;2085788;28;19929;-54
2023/04/03 02:37:01;;;;;;;;;;;;;;;18.34;56.73;98120.47;2086790;28;20341;-52
2023/04/03 02:38:02;;;;;;;;;;;;;;;18.32;56.76;98117.19;2087076;28;19972;-53
2023/04/03 02:39:04;;;;;;;;;;;;;;;18.31;56.84;98112.84;2086954;28;19929;-53
2023/04/03 02:40:05;;;;;;;;;;;;;;;18.32;56.67;98114.50;2085930;28;19939;-54
2023/04/03 02:41:08;;;;;;;;;;;;;;;18.32;57.03;98119.88;2079849;28;20608;-53
2023/04/03 02:42:08;;;;;;;;;;;;;;;18.31;56.69;98118.22;2074431;28;20341;-54
2023/04/03 02:43:10;;;;;;;;;;;;;;;18.31;56.79;98126.28;2081854;28;19925;-53
2023/04/03 02:44:11;;;;;;;;;;;;;;;18.31;56.80;98120.91;2079450;28;20597;-54
2023/04/03 02:45:12;;;;;;;;;;;;;;;18.29;56.81;98120.28;2080022;28;19936;-54
2023/04/03 02:46:14;;;;;;;;;;;;;;;18.30;56.75;98120.09;2076235;28;19954;-55
2023/04/03 02:47:16;;;;;;;;;;;;;;;18.32;56.80;98127.91;2082193;28;19937;-55
2023/04/03 02:48:18;;;;;;;;;;;;;;;18.31;56.86;98123.59;2078040;28;20015;-54
2023/04/03 02:49:19;;;;;;;;;;;;;;;18.31;56.90;98127.09;2080052;28;20527;-54
2023/04/03 02:50:20;;;;;;;;;;;;;;;18.30;56.89;98127.28;2082565;28;19932;-53
2023/04/03 02:51:22;;;;;;;;;;;;;;;18.30;56.86;98129.97;2077925;28;19929;-52
2023/04/03 02:52:23;;;;;;;;;;;;;;;18.30;56.78;98125.47;2081774;28;19929;-55
2023/04/03 02:53:24;;;;;;;;;;;;;;;18.28;56.96;98127.53;2080172;27;19933;-53
2023/04/03 02:54:28;;;;;;;;;;;;;;;18.31;56.63;98131.66;2081544;28;20426;-54
2023/04/03 02:55:29;;;;;;;;;;;;;;;18.29;56.87;98128.34;2080821;28;19994;-53
2023/04/03 02:56:30;;;;;;;;;;;;;;;18.29;56.91;98123.78;2083510;28;20359;-54
2023/04/03 02:57:31;;;;;;;;;;;;;;;18.28;56.69;98129.41;2076453;28;19937;-54
2023/04/03 02:58:32;;;;;;;;;;;;;;;18.29;56.92;98120.28;2075958;28;20434;-52
2023/04/03 02:59:33;;;;;;;;;;;;;;;18.29;56.66;98125.66;2083445;28;20009;-54
2023/04/03 03:00:34;;;;;;;;;;;;;;;18.29;56.70;98128.34;2086802;28;20329;-53
2023/04/03 03:01:35;;;;;;;;;;;;;;;18.27;56.76;98125.03;2086439;28;19924;-55
2023/04/03 03:02:36;;;;;;;;;;;;;;;18.29;56.73;98128.34;2085805;28;19932;-55
2023/04/03 03:03:39;;;;;;;;;;;;;;;18.26;56.71;98132.28;2084114;28;19928;-55
2023/04/03 03:04:40;;;;;;;;;;;;;;;18.26;56.83;98128.78;2080762;28;19943;-54
2023/04/03 03:05:41;;;;;;;;;;;;;;;18.25;56.65;98127.97;2079168;28;19928;-55
2023/04/03 03:06:41;;;;;;;;;;;;;;;18.24;56.85;98126.28;2082280;28;19981;-53
2023/04/03 03:07:43;;;;;;;;;;;;;;;18.26;56.84;98134.16;2086530;28;19932;-55
2023/04/03 03:08:44;;;;;;;;;;;;;;;18.28;56.79;98124.03;2082778;28;20005;-54
2023/04/03 03:09:45;;;;;;;;;;;;;;;18.28;56.76;98121.34;2084515;28;19954;-54
2023/04/03 03:10:46;;;;;;;;;;;;;;;18.29;56.65;98123.78;2076987;28;20219;-55
2023/04/03 03:11:47;;;;;;;;;;;;;;;18.30;56.59;98119.25;2082483;28;19970;-54
2023/04/03 03:12:48;;;;;;;;;;;;;;;18.31;56.62;98118.22;2077594;28;20933;-56
2023/04/03 03:13:49;;;;;;;;;;;;;;;18.29;56.63;98118.44;2078945;28;19928;-55
2023/04/03 03:14:50;;;;;;;;;;;;;;;18.29;56.70;98118.44;2078329;28;20490;-56
2023/04/03 03:15:52;;;;;;;;;;;;;;;18.27;56.56;98115.13;2078332;28;19932;-53
2023/04/03 03:16:52;;;;;;;;;;;;;;;18.28;56.67;98115.97;2084951;28;19952;-53
2023/04/03 03:17:54;;;;;;;;;;;;;;;18.29;56.68;98120.28;2083350;28;19924;-53
2023/04/03 03:18:56;;;;;;;;;;;;;;;18.27;56.49;98114.31;2084342;28;19960;-55
2023/04/03 03:19:57;;;;;;;;;;;;;;;18.28;56.39;98111.41;2085775;27;20467;-54
2023/04/03 03:20:59;;;;;;;;;;;;;;;18.28;56.65;98110.59;2088186;28;19925;-54
2023/04/03 03:22:01;;;;;;;;;;;;;;;18.29;56.28;98113.06;2085326;28;19929;-55
2023/04/03 03:23:01;;;;;;;;;;;;;;;18.29;56.59;98114.94;2084485;28;20310;-52
2023/04/03 03:24:03;;;;;;;;;;;;;;;18.28;56.58;98114.09;2077604;28;19967;-55
2023/04/03 03:25:04;;;;;;;;;;;;;;;18.28;56.38;98114.09;2081325;28;19932;-55
2023/04/03 03:26:07;;;;;;;;;;;;;;;18.28;56.34;98108.72;2078727;28;20393;-53
2023/04/03 03:27:07;;;;;;;;;;;;;;;18.28;56.38;98106.06;2075787;28;19929;-54
2023/04/03 03:28:09;;;;;;;;;;;;;;;18.29;56.50;98106.88;2082050;28;19970;-52
2023/04/03 03:29:09;;;;;;;;;;;;;;;18.31;56.47;98107.50;2086417;28;19924;-51
2023/04/03 03:30:11;;;;;;;;;;;;;;;18.32;56.50;98106.44;2084641;28;19929;-54
2023/04/03 03:31:12;;;;;;;;;;;;;;;18.34;56.18;98103.56;2087667;28;19939;-52
2023/04/03 03:32:13;;;;;;;;;;;;;;;18.35;56.27;98106.00;2085663;28;19928;-52
2023/04/03 03:33:13;;;;;;;;;;;;;;;18.35;56.04;98100.63;2084320;28;19932;-52
2023/04/03 03:34:16;;;;;;;;;;;;;;;18.35;56.44;98100.63;2084663;28;20495;-51
2023/04/03 03:35:17;;;;;;;;;;;;;;;18.38;56.40;98097.53;2081464;28;21144;-52
2023/04/03 03:36:18;;;;;;;;;;;;;;;18.39;55.94;98107.25;2083461;28;19932;-52
2023/04/03 03:37:19;;;;;;;;;;;;;;;18.44;56.13;98103.88;2085151;28;20001;-53
2023/04/03 03:38:21;;;;;;;;;;;;;;;18.47;55.83;98098.94;2086256;28;19928;-54
2023/04/03 03:39:21;;;;;;;;;;;;;;;18.50;56.01;98097.69;2080738;28;19982;-53
2023/04/03 03:40:23;;;;;;;;;;;;;;;18.54;55.71;98105.06;2080919;28;19933;-53
2023/04/03 03:41:23;;;;;;;;;;;;;;;18.58;55.67;98093.91;2079089;28;19932;-53
2023/04/03 03:42:25;;;;;;;;;;;;;;;18.61;55.82;98101.50;2081478;28;20430;-54
2023/04/03 03:43:25;;;;;;;;;;;;;;;18.65;55.73;98097.38;2083383;28;19935;-55
2023/04/03 03:44:28;;;;;;;;;;;;;;;18.69;55.44;98090.50;2081822;28;20006;-54
2023/04/03 03:45:29;;;;;;;;;;;;;;;18.70;55.73;98093.00;2086216;28;20282;-54
2023/04/03 03:46:31;;;;;;;;;;;;;;;18.76;55.51;98085.97;2085411;28;19963;-51
2023/04/03 03:47:31;;;;;;;;;;;;;;;18.82;55.25;98085.09;2086321;28;19932;-54
2023/04/03 03:48:33;;;;;;;;;;;;;;;18.89;55.34;98090.44;2076002;28;19933;-54
2023/04/03 03:49:35;;;;;;;;;;;;;;;18.93;55.31;98089.75;2077579;28;19983;-54
2023/04/03 03:50:36;;;;;;;;;;;;;;;18.97;55.13;98090.97;2078555;28;20055;-53
2023/04/03 03:51:37;;;;;;;;;;;;;;;19.01;55.17;98077.09;2083000;28;20347;-54
2023/04/03 03:52:38;;;;;;;;;;;;;;;19.01;55.22;98087.84;2081995;28;19929;-54
2023/04/03 03:53:39;;;;;;;;;;;;;;;19.02;55.24;98090.28;2080122;28;19933;-54
2023/04/03 03:54:41;;;;;;;;;;;;;;;19.05;54.84;98083.66;2085584;28;20505;-54
2023/04/03 03:55:41;;;;;;;;;;;;;;;19.08;55.00;98088.59;2086070;28;19924;-55
2023/04/03 03:56:43;;;;;;;;;;;;;;;19.09;54.91;98088.38;2079870;28;19932;-51
2023/04/03 03:57:43;;;;;;;;;;;;;;;19.10;54.93;98084.66;2080522;28;19929;-51
2023/04/03 03:58:45;;;;;;;;;;;;;;;19.13;54.69;98091.44;2087134;28;19933;-53
2023/04/03 03:59:46;;;;;;;;;;;;;;;19.15;55.12;98089.38;2084218;28;20656;-53
2023/04/03 04:00:48;;;;;;;;;;;;;;;19.15;55.01;98089.38;2085080;28;20399;-54
2023/04/03 04:01:49;;;;;;;;;;;;;;;19.16;55.06;98082.94;2085898;28;20027;-52
2023/04/03 04:02:51;;;;;;;;;;;;;;;19.18;54.95;98083.56;2086079;28;19947;-54
2023/04/03 04:03:53;;;;;;;;;;;;;;;19.22;55.11;98094.69;2087016;28;19928;-54
2023/04/03 04:04:56;;;;;;;;;;;;;;;19.22;54.97;98083.94;2086224;28;19929;-55
2023/04/03 04:05:57;;;;;;;;;;;;;;;19.24;54.88;98084.53;2086523;28;19932;-54
2023/04/03 04:07:00;;;;;;;;;;;;;;;19.27;54.85;98086.78;2084089;28;20423;-53
2023/04/03 04:08:00;;;;;;;;;;;;;;;19.27;54.83;98087.59;2080501;28;19987;-54
2023/04/03 04:09:02;;;;;;;;;;;;;;;19.29;54.65;98084.69;2080305;28;19929;-54
2023/04/03 04:10:02;;;;;;;;;;;;;;;19.31;54.90;98088.00;2079725;28;20019;-54
2023/04/03 04:11:04;;;;;;;;;;;;;;;19.32;54.60;98090.44;2085516;28;20315;-54
2023/04/03 04:12:04;;;;;;;;;;;;;;;19.34;54.90;98090.25;2081321;28;19994;-55
2023/04/03 04:13:06;;;;;;;;;;;;;;;19.35;54.60;98079.25;2086137;28;19978;-54
2023/04/03 04:14:06;;;;;;;;;;;;;;;19.36;54.42;98088.97;2083834;28;20398;-52
2023/04/03 04:15:08;;;;;;;;;;;;;;;19.36;54.81;98078.22;2077535;28;19928;-54
2023/04/03 04:16:09;;;;;;;;;;;;;;;19.39;54.81;98080.47;2079800;28;20011;-54
2023/04/03 04:17:11;;;;;;;;;;;;;;;19.39;54.33;98080.47;2079993;28;20049;-54
2023/04/03 04:18:11;;;;;;;;;;;;;;;19.40;54.34;98090.16;2078545;28;19928;-55
2023/04/03 04:19:13;;;;;;;;;;;;;;;19.42;54.68;98089.97;2084022;28;19929;-55
2023/04/03 04:20:15;;;;;;;;;;;;;;;19.42;54.64;98085.41;2081593;28;20053;-51
2023/04/03 04:21:16;;;;;;;;;;;;;;;19.45;54.60;98083.31;2086395;28;19936;-54
2023/04/03 04:22:17;;;;;;;;;;;;;;;19.45;54.60;98086.81;2083735;28;20001;-54
2023/04/03 04:23:19;;;;;;;;;;;;;;;19.48;54.29;98090.94;2078904;28;19937;-53
2023/04/03 04:24:19;;;;;;;;;;;;;;;19.49;54.41;98089.88;2082649;28;19973;-54
2023/04/03 04:25:21;;;;;;;;;;;;;;;19.48;54.37;98088.25;2081158;28;19932;-52
2023/04/03 04:26:21;;;;;;;;;;;;;;;19.50;54.41;98086.13;2082519;28;20310;-54
2023/04/03 04:27:22;;;;;;;;;;;;;;;19.51;54.23;98087.81;2080069;28;20047;-55
2023/04/03 04:28:24;;;;;;;;;;;;;;;19.51;54.20;98087.81;2078470;28;19936;-52
2023/04/03 04:29:24;;;;;;;;;;;;;;;19.53;54.10;98081.16;2082821;28;19978;-53
2023/04/03 04:30:27;;;;;;;;;;;;;;;19.54;54.18;98084.66;2072637;28;19932;-54
2023/04/03 04:31:27;;;;;;;;;;;;;;;19.54;54.26;98092.72;2071775;28;20031;-54
2023/04/03 04:32:29;;;;;;;;;;;;;;;19.56;54.49;98082.56;2069415;28;20371;-53
2023/04/03 04:33:29;;;;;;;;;;;;;;;19.55;54.21;98084.41;2076074;28;19951;-52
2023/04/03 04:34:31;;;;;;;;;;;;;;;19.57;54.42;98089.59;2076513;28;20478;-55
2023/04/03 04:35:33;;;;;;;;;;;;;;;19.58;54.33;98080.47;2076024;28;19929;-54
2023/04/03 04:36:35;;;;;;;;;;;;;;;19.58;54.14;98083.16;2074034;28;19964;-51
2023/04/03 04:37:35;;;;;;;;;;;;;;;19.58;54.05;98080.47;2081851;28;20922;-53
2023/04/03 04:38:38;;;;;;;;;;;;;;;19.58;54.24;98083.16;2083661;28;19983;-53
2023/04/03 04:39:38;;;;;;;;;;;;;;;19.58;54.32;98078.59;2077621;28;19970;-53
2023/04/03 04:40:41;;;;;;;;;;;;;;;19.58;54.30;98078.59;2080702;28;20919;-52
2023/04/03 04:41:41;;;;;;;;;;;;;;;19.58;54.09;98078.59;2084833;28;20402;-54
2023/04/03 04:42:43;;;;;;;;;;;;;;;19.60;54.16;98081.88;2080622;28;20069;-52
2023/04/03 04:43:43;;;;;;;;;;;;;;;19.60;54.16;98087.28;2085944;28;19986;-54
2023/04/03 04:44:45;;;;;;;;;;;;;;;19.61;53.94;98080.88;2079537;28;20006;-53
2023/04/03 04:45:45;;;;;;;;;;;;;;;19.60;54.25;98081.06;2084141;28;19929;-54
2023/04/03 04:46:46;;;;;;;;;;;;;;;19.61;54.06;98080.88;2079452;28;19940;-56
2023/04/03 04:47:47;;;;;;;;;;;;;;;19.60;54.00;98081.06;2084861;28;20060;-55
2023/04/03 04:48:49;;;;;;;;;;;;;;;19.62;54.06;98087.06;2087523;28;19955;-53
2023/04/03 04:49:50;;;;;;;;;;;;;;;19.62;54.12;98079.00;2084079;28;20442;-51
2023/04/03 04:50:52;;;;;;;;;;;;;;;19.63;54.02;98083.31;2085598;28;19928;-55
2023/04/03 04:51:53;;;;;;;;;;;;;;;19.63;54.13;98083.31;2084023;28;20434;-52
2023/04/03 04:52:54;;;;;;;;;;;;;;;19.63;54.13;98084.13;2079605;28;19929;-56
2023/04/03 04:53:55;;;;;;;;;;;;;;;19.64;54.12;98082.28;2081889;28;20417;-53
2023/04/03 04:54:56;;;;;;;;;;;;;;;19.65;53.83;98089.31;2082994;28;19933;-50
2023/04/03 04:55:57;;;;;;;;;;;;;;;19.66;53.86;98079.38;2084893;28;19936;-52
2023/04/03 04:56:58;;;;;;;;;;;;;;;19.63;53.84;98078.75;2080993;28;20395;-52
2023/04/03 04:58:00;;;;;;;;;;;;;;;19.65;53.94;98083.91;2076912;28;19933;-50
2023/04/03 04:59:00;;;;;;;;;;;;;;;19.66;53.89;98085.59;2078346;28;19936;-54
2023/04/03 05:00:02;;;;;;;;;;;;;;;19.66;53.92;98085.59;2083694;28;19929;-53
2023/04/03 05:01:04;;;;;;;;;;;;;;;19.66;54.04;98084.75;2080495;28;19928;-53
2023/04/03 05:02:05;;;;;;;;;;;;;;;19.67;53.74;98087.25;2083375;28;20357;-55
2023/04/03 05:03:06;;;;;;;;;;;;;;;19.66;53.99;98087.47;2083706;28;20609;-52
2023/04/03 05:04:07;;;;;;;;;;;;;;;19.66;53.73;98090.97;2082844;28;19979;-58
2023/04/03 05:05:08;;;;;;;;;;;;;;;19.66;53.92;98098.22;2083248;28;19963;-56
2023/04/03 05:06:11;;;;;;;;;;;;;;;19.66;53.71;98095.53;2086465;28;20494;-55
2023/04/03 05:07:12;;;;;;;;;;;;;;;19.66;53.81;98099.03;2082298;28;19929;-56
2023/04/03 05:08:13;;;;;;;;;;;;;;;19.68;53.70;98096.94;2075853;28;19933;-59
2023/04/03 05:09:14;;;;;;;;;;;;;;;19.68;53.91;98088.06;2083594;28;20501;-51
2023/04/03 05:10:15;;;;;;;;;;;;;;;19.68;53.94;98085.38;2079698;28;19929;-56
2023/04/03 05:11:16;;;;;;;;;;;;;;;19.68;53.84;98094.25;2087961;28;20659;-52
2023/04/03 05:12:17;;;;;;;;;;;;;;;19.67;54.07;98095.31;2084463;28;19933;-50
2023/04/03 05:13:18;;;;;;;;;;;;;;;19.68;53.69;98093.44;2077717;28;19932;-55
2023/04/03 05:14:19;;;;;;;;;;;;;;;19.67;54.01;98092.63;2080976;28;19928;-58
2023/04/03 05:15:20;;;;;;;;;;;;;;;19.67;53.94;98098.00;2081628;28;20047;-56
2023/04/03 05:16:21;;;;;;;;;;;;;;;19.67;53.83;98094.47;2081899;28;20299;-54
2023/04/03 05:17:22;;;;;;;;;;;;;;;19.66;54.09;98093.66;2084616;28;20372;-56
2023/04/03 05:18:23;;;;;;;;;;;;;;;19.68;54.02;98090.75;2080179;28;19932;-58
2023/04/03 05:19:23;;;;;;;;;;;;;;;19.68;54.06;98098.81;2077099;28;19936;-56
2023/04/03 05:20:25;;;;;;;;;;;;;;;19.67;53.86;98094.47;2081364;28;19967;-54
2023/04/03 05:21:31;;;;;;;;;;;;;;;19.67;53.98;98102.53;2086105;28;19928;-56